createdAt,value
2023-10-10T00:01:47.058Z,12.47
2023-10-10T00:04:14.146Z,13.83
2023-10-10T00:06:41.926Z,12.07
2023-10-10T00:09:13.187Z,15.90
2023-10-10T00:11:42.239Z,14.67
2023-10-10T00:14:19.353Z,13.47
2023-10-10T00:16:56.381Z,14.63
2023-10-10T00:19:26.148Z,14.87
2023-10-10T00:21:53.156Z,13.27
2023-10-10T00:24:31.875Z,12.03
2023-10-10T00:27:14.478Z,14.77
2023-10-10T00:29:45.353Z,13.13
2023-10-10T00:32:24.327Z,12.20
2023-10-10T00:34:52.273Z,10.10
2023-10-10T00:37:27.358Z,10.73
2023-10-10T00:39:54.332Z,10.80
2023-10-10T00:42:29.100Z,11.57
2023-10-10T00:44:56.016Z,10.57
2023-10-10T00:47:26.485Z,9.53
2023-10-10T00:49:54.421Z,11.33
2023-10-10T00:52:22.043Z,9.43
2023-10-10T00:54:51.228Z,10.17
2023-10-10T00:57:23.106Z,10.97
2023-10-10T00:59:56.029Z,10.33
2023-10-10T01:02:24.197Z,10.87
2023-10-10T01:04:56.897Z,10.10
2023-10-10T01:07:26.842Z,10.00
2023-10-10T01:09:58.098Z,11.40
2023-10-10T01:12:27.365Z,11.50
2023-10-10T01:14:56.244Z,13.23
2023-10-10T01:17:31.211Z,11.27
2023-10-10T01:20:22.138Z,11.63
2023-10-10T01:22:50.235Z,13.33
2023-10-10T01:25:36.141Z,12.10
2023-10-10T01:28:07.188Z,12.80
2023-10-10T01:30:52.690Z,13.47
2023-10-10T01:33:24.896Z,13.40
2023-10-10T01:35:57.152Z,13.77
2023-10-10T01:38:57.996Z,14.83
2023-10-10T01:41:32.877Z,13.50
2023-10-10T01:44:20.624Z,13.47
2023-10-10T01:46:48.153Z,17.47
2023-10-10T01:49:17.136Z,16.37
2023-10-10T01:51:45.153Z,14.47
2023-10-10T01:54:35.498Z,15.37
2023-10-10T01:57:07.788Z,16.83
2023-10-10T01:59:40.220Z,16.07
2023-10-10T02:02:11.600Z,16.23
2023-10-10T02:04:40.985Z,18.73
2023-10-10T02:07:15.616Z,15.97
2023-10-10T02:09:44.951Z,16.60
2023-10-10T02:12:17.277Z,19.33
2023-10-10T02:14:44.659Z,16.07
2023-10-10T02:17:30.682Z,18.77
2023-10-10T02:20:26.776Z,17.37
2023-10-10T02:23:14.813Z,21.23
2023-10-10T02:25:47.344Z,17.30
2023-10-10T02:28:17.372Z,16.40
2023-10-10T02:30:47.413Z,20.00
2023-10-10T02:33:21.138Z,19.00
2023-10-10T02:35:55.919Z,18.03
2023-10-10T02:38:41.383Z,16.33
2023-10-10T02:41:36.525Z,19.40
2023-10-10T02:44:03.529Z,16.63
2023-10-10T02:46:37.159Z,16.97
2023-10-10T02:49:31.153Z,15.83
2023-10-10T02:51:58.585Z,17.03
2023-10-10T02:54:28.141Z,14.83
2023-10-10T02:56:59.698Z,14.03
2023-10-10T02:59:34.381Z,14.73
2023-10-10T03:02:09.763Z,17.00
2023-10-10T03:04:55.588Z,17.60
2023-10-10T03:07:30.498Z,15.33
2023-10-10T03:10:08.991Z,19.30
2023-10-10T03:12:39.251Z,17.03
2023-10-10T03:15:15.618Z,18.87
2023-10-10T03:18:02.093Z,18.83
2023-10-10T03:20:32.993Z,17.23
2023-10-10T03:23:07.198Z,15.20
2023-10-10T03:25:48.991Z,15.33
2023-10-10T03:28:21.099Z,14.83
2023-10-10T03:31:11.906Z,15.07
2023-10-10T03:33:46.117Z,18.43
2023-10-10T03:36:15.025Z,18.20
2023-10-10T03:38:49.509Z,23.73
2023-10-10T03:41:36.398Z,16.17
2023-10-10T03:44:21.894Z,16.83
2023-10-10T03:47:01.209Z,14.50
2023-10-10T03:49:48.400Z,24.80
2023-10-10T03:52:34.561Z,20.80
2023-10-10T03:55:20.484Z,18.87
2023-10-10T03:58:05.909Z,16.97
2023-10-10T04:00:51.505Z,15.40
2023-10-10T04:03:36.955Z,15.87
2023-10-10T04:06:23.628Z,15.47
2023-10-10T04:09:09.561Z,14.13
2023-10-10T04:11:55.154Z,17.07
2023-10-10T04:14:40.869Z,17.07
2023-10-10T04:17:26.327Z,13.77
2023-10-10T04:20:12.156Z,15.60
2023-10-10T04:22:57.862Z,16.53
2023-10-10T04:25:43.493Z,16.70
2023-10-10T04:28:29.534Z,15.20
2023-10-10T04:31:15.041Z,15.07
2023-10-10T04:34:00.759Z,14.03
2023-10-10T04:36:46.276Z,16.50
2023-10-10T04:39:31.395Z,18.10
2023-10-10T04:42:16.712Z,13.57
2023-10-10T04:45:02.151Z,14.83
2023-10-10T04:47:47.964Z,14.70
2023-10-10T04:50:33.626Z,16.10
2023-10-10T04:53:19.319Z,14.67
2023-10-10T04:56:04.813Z,14.97
2023-10-10T04:58:50.274Z,14.73
2023-10-10T05:01:35.728Z,15.73
2023-10-10T05:04:21.261Z,16.90
2023-10-10T05:07:06.919Z,14.13
2023-10-10T05:09:54.344Z,11.80
2023-10-10T05:12:40.012Z,14.10
2023-10-10T05:15:26.320Z,14.87
2023-10-10T05:18:11.940Z,13.60
2023-10-10T05:20:59.954Z,13.70
2023-10-10T05:23:36.088Z,14.60
2023-10-10T05:26:07.125Z,15.17
2023-10-10T05:28:34.480Z,13.20
2023-10-10T05:31:04.367Z,14.23
2023-10-10T05:33:32.163Z,14.97
2023-10-10T05:36:00.650Z,16.57
2023-10-10T05:38:27.948Z,15.30
2023-10-10T05:40:55.672Z,14.60
2023-10-10T05:43:28.068Z,18.27
2023-10-10T05:45:55.695Z,14.67
2023-10-10T05:48:23.437Z,14.43
2023-10-10T05:50:50.510Z,15.13
2023-10-10T05:53:18.638Z,19.17
2023-10-10T05:55:54.692Z,18.07
2023-10-10T05:58:24.611Z,17.73
2023-10-10T06:00:51.469Z,18.57
2023-10-10T06:03:18.856Z,16.47
2023-10-10T06:05:46.178Z,18.77
2023-10-10T06:08:16.473Z,17.50
2023-10-10T06:10:43.536Z,15.27
2023-10-10T06:13:12.863Z,16.23
2023-10-10T06:15:40.858Z,14.93
2023-10-10T06:18:13.943Z,14.40
2023-10-10T06:20:54.223Z,15.23
2023-10-10T06:23:27.512Z,15.40
2023-10-10T06:26:01.835Z,17.53
2023-10-10T06:28:30.736Z,17.30
2023-10-10T06:31:01.328Z,17.37
2023-10-10T06:33:31.097Z,16.90
2023-10-10T06:36:24.446Z,16.43
2023-10-10T06:39:06.940Z,20.43
2023-10-10T06:41:40.453Z,14.73
2023-10-10T06:44:19.146Z,16.87
2023-10-10T06:46:50.156Z,15.97
2023-10-10T06:49:17.317Z,16.90
2023-10-10T06:51:44.441Z,16.07
2023-10-10T06:54:28.932Z,20.33
2023-10-10T06:57:02.347Z,16.57
2023-10-10T06:59:30.385Z,17.60
2023-10-10T07:02:14.151Z,14.30
2023-10-10T07:04:42.136Z,15.47
2023-10-10T07:07:10.446Z,15.93
2023-10-10T07:09:43.731Z,14.93
2023-10-10T07:12:11.811Z,15.10
2023-10-10T07:14:45.358Z,14.30
2023-10-10T07:17:13.844Z,15.10
2023-10-10T07:20:03.006Z,10.53
2023-10-10T07:22:35.952Z,11.03
2023-10-10T07:25:18.801Z,9.90
2023-10-10T07:27:46.198Z,9.00
2023-10-10T07:30:19.729Z,9.50
2023-10-10T07:32:50.431Z,9.00
2023-10-10T07:35:18.975Z,10.33
2023-10-10T07:37:46.928Z,10.50
2023-10-10T07:40:17.711Z,8.93
2023-10-10T07:42:51.880Z,11.10
2023-10-10T07:45:29.526Z,10.10
2023-10-10T07:47:59.394Z,12.23
2023-10-10T07:50:36.204Z,9.20
2023-10-10T07:53:08.154Z,9.20
2023-10-10T07:55:54.766Z,12.97
2023-10-10T07:58:51.299Z,11.77
2023-10-10T08:01:20.016Z,9.83
2023-10-10T08:03:48.275Z,11.13
2023-10-10T08:06:23.897Z,13.53
2023-10-10T08:09:19.522Z,16.23
2023-10-10T08:11:47.582Z,14.00
2023-10-10T08:14:15.057Z,13.30
2023-10-10T08:16:44.714Z,13.67
2023-10-10T08:19:16.685Z,13.80
2023-10-10T08:21:53.098Z,17.40
2023-10-10T08:24:21.761Z,17.00
2023-10-10T08:26:52.574Z,13.47
2023-10-10T08:29:24.032Z,16.23
2023-10-10T08:31:53.124Z,12.50
2023-10-10T08:34:29.060Z,14.53
2023-10-10T08:37:04.339Z,12.47
2023-10-10T08:39:36.848Z,15.80
2023-10-10T08:42:12.771Z,14.23
2023-10-10T08:44:42.521Z,12.83
2023-10-10T08:47:20.592Z,16.63
2023-10-10T08:49:49.201Z,14.90
2023-10-10T08:52:21.427Z,12.77
2023-10-10T08:54:49.206Z,17.77
2023-10-10T08:57:25.935Z,16.20
2023-10-10T08:59:53.989Z,16.97
2023-10-10T09:02:21.726Z,12.50
2023-10-10T09:04:52.083Z,18.40
2023-10-10T09:07:24.750Z,15.70
2023-10-10T09:10:07.793Z,17.07
2023-10-10T09:12:49.426Z,15.37
2023-10-10T09:15:18.450Z,15.47
2023-10-10T09:17:47.083Z,14.83
2023-10-10T09:20:24.925Z,14.00
2023-10-10T09:23:18.558Z,16.17
2023-10-10T09:25:50.108Z,15.73
2023-10-10T09:28:20.145Z,13.50
2023-10-10T09:31:11.237Z,11.90
2023-10-10T09:33:44.013Z,11.93
2023-10-10T09:36:11.166Z,10.43
2023-10-10T09:38:45.326Z,11.07
2023-10-10T09:41:34.785Z,11.43
2023-10-10T09:44:24.218Z,11.00
2023-10-10T09:47:10.760Z,11.03
2023-10-10T09:49:48.146Z,11.57
2023-10-10T09:52:34.934Z,8.47
2023-10-10T09:55:15.597Z,10.90
2023-10-10T09:58:07.067Z,8.30
2023-10-10T10:00:39.513Z,7.93
2023-10-10T10:03:27.897Z,8.30
2023-10-10T10:06:06.883Z,9.10
2023-10-10T10:09:16.097Z,7.90
2023-10-10T10:11:58.042Z,8.80
2023-10-10T10:15:01.394Z,6.90
2023-10-10T10:17:55.951Z,6.90
2023-10-10T10:20:47.158Z,7.87
2023-10-10T10:23:27.919Z,5.90
2023-10-10T10:26:05.763Z,9.77
2023-10-10T10:28:39.197Z,5.87
2023-10-10T10:31:07.171Z,7.87
2023-10-10T10:33:35.043Z,6.60
2023-10-10T10:36:16.395Z,6.13
2023-10-10T10:39:05.033Z,6.23
2023-10-10T10:41:44.464Z,6.73
2023-10-10T10:44:14.247Z,5.20
2023-10-10T10:46:42.700Z,8.00
2023-10-10T10:49:13.761Z,7.90
2023-10-10T10:51:48.734Z,4.80
2023-10-10T10:54:39.289Z,6.00
2023-10-10T10:57:06.330Z,8.97
2023-10-10T10:59:46.721Z,8.00
2023-10-10T11:02:17.927Z,11.10
2023-10-10T11:04:51.813Z,7.17
2023-10-10T11:07:30.341Z,9.17
2023-10-10T11:10:17.585Z,7.67
2023-10-10T11:12:46.012Z,8.63
2023-10-10T11:15:13.107Z,8.50
2023-10-10T11:17:41.351Z,9.03
2023-10-10T11:20:27.805Z,10.77
2023-10-10T11:23:08.980Z,10.33
2023-10-10T11:25:48.278Z,8.80
2023-10-10T11:28:23.459Z,13.37
2023-10-10T11:30:52.353Z,9.50
2023-10-10T11:33:52.105Z,7.47
2023-10-10T11:36:41.130Z,5.80
2023-10-10T11:39:33.482Z,7.17
2023-10-10T11:42:05.838Z,6.90
2023-10-10T11:44:35.034Z,5.80
2023-10-10T11:47:08.724Z,5.43
2023-10-10T11:49:36.793Z,6.83
2023-10-10T11:52:05.276Z,4.40
2023-10-10T11:54:32.141Z,4.23
2023-10-10T11:57:01.122Z,5.67
2023-10-10T11:59:28.233Z,4.40
2023-10-10T12:02:15.518Z,5.87
2023-10-10T12:04:46.250Z,5.63
2023-10-10T12:07:15.713Z,5.57
2023-10-10T12:09:46.501Z,6.10
2023-10-10T12:12:14.534Z,4.53
2023-10-10T12:14:44.065Z,7.13
2023-10-10T12:17:12.003Z,5.27
2023-10-10T12:19:38.976Z,6.30
2023-10-10T12:22:10.220Z,4.60
2023-10-10T12:24:37.226Z,5.63
2023-10-10T12:27:08.505Z,4.43
2023-10-10T12:29:42.819Z,6.23
2023-10-10T12:32:17.470Z,5.83
2023-10-10T12:34:44.838Z,5.00
2023-10-10T12:37:12.064Z,6.30
2023-10-10T12:39:39.558Z,7.67
2023-10-10T12:42:08.984Z,4.87
2023-10-10T12:44:36.369Z,5.50
2023-10-10T12:47:07.953Z,4.87
2023-10-10T12:49:38.071Z,12.00
2023-10-10T12:52:13.663Z,7.40
2023-10-10T12:54:43.251Z,7.17
2023-10-10T12:57:15.505Z,8.87
2023-10-10T12:59:48.056Z,5.33
2023-10-10T13:02:17.301Z,5.30
2023-10-10T13:04:48.543Z,5.90
2023-10-10T13:07:17.855Z,6.00
2023-10-10T13:09:47.971Z,6.37
2023-10-10T13:12:29.079Z,6.83
2023-10-10T13:15:12.615Z,7.77
2023-10-10T13:17:51.732Z,6.23
2023-10-10T13:20:20.076Z,8.73
2023-10-10T13:22:51.978Z,8.00
2023-10-10T13:25:20.560Z,8.07
2023-10-10T13:27:47.785Z,8.33
2023-10-10T13:30:15.173Z,12.40
2023-10-10T13:32:43.128Z,7.20
2023-10-10T13:35:10.702Z,9.23
2023-10-10T13:37:42.450Z,9.53
2023-10-10T13:40:11.206Z,8.53
2023-10-10T13:42:41.869Z,10.07
2023-10-10T13:45:13.571Z,11.67
2023-10-10T13:47:42.053Z,9.37
2023-10-10T13:50:29.883Z,8.90
2023-10-10T13:52:57.093Z,9.57
2023-10-10T13:55:24.636Z,9.83
2023-10-10T13:57:51.554Z,10.57
2023-10-10T14:00:31.165Z,10.67
2023-10-10T14:03:07.501Z,13.37
2023-10-10T14:05:39.324Z,11.50
2023-10-10T14:08:19.325Z,10.87
2023-10-10T14:10:51.720Z,12.37
2023-10-10T14:13:23.027Z,13.03
2023-10-10T14:15:59.191Z,10.93
2023-10-10T14:18:31.333Z,12.67
2023-10-10T14:21:08.704Z,11.70
2023-10-10T14:23:40.686Z,12.27
2023-10-10T14:26:15.084Z,12.30
2023-10-10T14:28:43.311Z,15.87
2023-10-10T14:31:14.079Z,11.93
2023-10-10T14:33:42.065Z,14.30
2023-10-10T14:36:15.597Z,12.83
2023-10-10T14:38:46.310Z,15.30
2023-10-10T14:41:21.358Z,14.53
2023-10-10T14:43:53.638Z,16.17
2023-10-10T14:46:24.087Z,17.27
2023-10-10T14:49:07.644Z,15.27
2023-10-10T14:51:36.350Z,18.37
2023-10-10T14:54:13.482Z,18.83
2023-10-10T14:56:47.804Z,20.10
2023-10-10T14:59:20.264Z,18.80
2023-10-10T15:01:50.817Z,19.33
2023-10-10T15:04:22.970Z,26.30
2023-10-10T15:06:55.828Z,23.27
2023-10-10T15:09:27.021Z,23.07
2023-10-10T15:11:59.878Z,25.73
2023-10-10T15:14:27.339Z,23.40
2023-10-10T15:16:55.154Z,24.57
2023-10-10T15:19:22.174Z,23.93
2023-10-10T15:21:49.888Z,24.97
2023-10-10T15:24:17.277Z,23.47
2023-10-10T15:26:49.774Z,26.67
2023-10-10T15:29:18.207Z,24.07
2023-10-10T15:31:46.512Z,25.97
2023-10-10T15:34:17.787Z,28.83
2023-10-10T15:36:47.942Z,29.57
2023-10-10T15:39:17.517Z,26.63
2023-10-10T15:41:46.203Z,24.43
2023-10-10T15:44:17.164Z,31.60
2023-10-10T15:46:45.253Z,28.67
2023-10-10T15:51:46.309Z,25.73
2023-10-10T15:54:16.389Z,27.67
2023-10-10T15:56:44.181Z,25.63
2023-10-10T15:59:11.637Z,25.37
2023-10-10T16:01:38.849Z,26.43
2023-10-10T16:04:13.961Z,25.03
2023-10-10T16:06:48.968Z,26.60
2023-10-10T16:09:22.569Z,32.13
2023-10-10T16:11:58.331Z,32.40
2023-10-10T16:14:26.929Z,29.87
2023-10-10T16:16:54.441Z,28.80
2023-10-10T16:19:25.993Z,36.83
2023-10-10T16:21:54.726Z,34.80
2023-10-10T16:24:21.835Z,32.10
2023-10-10T16:27:00.536Z,34.30
2023-10-10T16:29:34.940Z,37.23
2023-10-10T16:32:09.930Z,32.60
2023-10-10T16:34:42.649Z,33.17
2023-10-10T16:37:15.552Z,32.73
2023-10-10T16:39:47.100Z,33.77
2023-10-10T16:42:16.509Z,30.83
2023-10-10T16:44:46.247Z,36.47
2023-10-10T16:47:18.573Z,37.63
2023-10-10T16:49:46.265Z,34.73
2023-10-10T16:52:13.216Z,41.37
2023-10-10T16:54:42.083Z,35.30
2023-10-10T16:57:12.460Z,38.07
2023-10-10T16:59:39.786Z,36.30
2023-10-10T17:02:07.133Z,35.03
2023-10-10T17:04:34.907Z,36.23
2023-10-10T17:07:01.664Z,36.57
2023-10-10T17:09:29.859Z,33.60
2023-10-10T17:12:04.445Z,38.03
2023-10-10T17:14:32.333Z,34.90
2023-10-10T17:16:59.235Z,39.03
2023-10-10T17:19:26.243Z,41.00
2023-10-10T17:21:53.492Z,37.40
2023-10-10T17:24:21.324Z,37.70
2023-10-10T17:26:48.739Z,36.63
2023-10-10T17:29:17.624Z,38.10
2023-10-10T17:31:44.706Z,39.30
2023-10-10T17:34:17.291Z,41.63
2023-10-10T17:36:44.718Z,43.77
2023-10-10T17:39:16.906Z,47.83
2023-10-10T17:41:49.371Z,36.50
2023-10-10T17:44:19.532Z,38.53
2023-10-10T17:46:48.336Z,37.63
2023-10-10T17:49:16.383Z,36.67
2023-10-10T17:51:46.198Z,41.43
2023-10-10T17:54:17.612Z,35.03
2023-10-10T17:56:46.050Z,35.47
2023-10-10T17:59:13.390Z,35.33
2023-10-10T18:01:40.341Z,34.40
2023-10-10T18:04:08.604Z,36.67
2023-10-10T18:06:36.406Z,34.47
2023-10-10T18:09:09.888Z,35.00
2023-10-10T18:11:38.246Z,29.17
2023-10-10T18:14:08.580Z,29.37
2023-10-10T18:16:38.722Z,28.27
2023-10-10T18:19:07.124Z,34.20
2023-10-10T18:21:34.592Z,29.27
2023-10-10T18:24:07.600Z,28.57
2023-10-10T18:26:39.177Z,30.43
2023-10-10T18:29:06.852Z,29.10
2023-10-10T18:31:35.982Z,29.70
2023-10-10T18:34:06.436Z,26.70
2023-10-10T18:36:38.483Z,33.60
2023-10-10T18:39:13.209Z,28.60
2023-10-10T18:41:44.163Z,25.60
2023-10-10T18:44:12.316Z,22.73
2023-10-10T18:46:39.610Z,21.80
2023-10-10T18:49:07.241Z,23.67
2023-10-10T18:51:34.268Z,20.23
2023-10-10T18:54:01.539Z,19.30
2023-10-10T18:56:28.717Z,20.40
2023-10-10T18:58:55.657Z,19.03
2023-10-10T19:01:23.470Z,18.13
2023-10-10T19:03:50.882Z,20.63
2023-10-10T19:06:21.709Z,17.00
2023-10-10T19:08:49.952Z,15.73
2023-10-10T19:11:24.897Z,15.73
2023-10-10T19:13:52.103Z,15.17
2023-10-10T19:16:19.870Z,14.20
2023-10-10T19:18:47.717Z,12.80
2023-10-10T19:21:17.177Z,18.73
2023-10-10T19:23:51.584Z,14.87
2023-10-10T19:26:19.211Z,14.63
2023-10-10T19:28:54.510Z,14.30
2023-10-10T19:31:24.241Z,12.97
2023-10-10T19:33:51.827Z,13.70
2023-10-10T19:36:21.546Z,14.73
2023-10-10T19:38:49.130Z,17.23
2023-10-10T19:41:16.296Z,13.30
2023-10-10T19:43:43.333Z,13.77
2023-10-10T19:46:13.661Z,14.17
2023-10-10T19:48:42.301Z,15.97
2023-10-10T19:51:19.610Z,12.23
2023-10-10T19:53:51.563Z,11.53
2023-10-10T19:56:19.035Z,11.33
2023-10-10T19:58:50.072Z,11.20
2023-10-10T20:01:17.566Z,10.30
2023-10-10T20:03:47.276Z,11.03
2023-10-10T20:06:22.049Z,11.47
2023-10-10T20:08:55.616Z,14.40
2023-10-10T20:11:25.649Z,11.60
2023-10-10T20:13:53.150Z,12.67
2023-10-10T20:16:22.062Z,10.90
2023-10-10T20:18:54.162Z,12.90
2023-10-10T20:21:21.191Z,13.27
2023-10-10T20:23:48.629Z,9.97
2023-10-10T20:26:19.560Z,10.23
2023-10-10T20:28:48.925Z,12.17
2023-10-10T20:31:19.027Z,11.70
2023-10-10T20:33:48.838Z,9.60
2023-10-10T20:36:16.941Z,9.93
2023-10-10T20:38:44.698Z,10.63
2023-10-10T20:41:13.090Z,11.63
2023-10-10T20:43:41.743Z,9.70
2023-10-10T20:46:08.933Z,9.80
2023-10-10T20:48:35.907Z,8.60
2023-10-10T20:51:04.550Z,11.10
2023-10-10T20:53:32.105Z,11.70
2023-10-10T20:55:59.211Z,10.03
2023-10-10T20:58:26.093Z,11.30
2023-10-10T21:00:52.957Z,10.47
2023-10-10T21:03:20.200Z,12.10
2023-10-10T21:05:48.877Z,12.13
2023-10-10T21:08:28.705Z,12.93
2023-10-10T21:10:55.714Z,9.37
2023-10-10T21:13:23.066Z,11.80
2023-10-10T21:15:50.772Z,11.63
2023-10-10T21:18:19.968Z,10.57
2023-10-10T21:21:00.243Z,10.03
2023-10-10T21:23:30.105Z,12.90
2023-10-10T21:25:56.993Z,11.60
2023-10-10T21:28:24.219Z,11.50
2023-10-10T21:30:51.181Z,10.37
2023-10-10T21:33:18.630Z,10.57
2023-10-10T21:35:45.843Z,11.20
2023-10-10T21:38:12.858Z,11.87
2023-10-10T21:40:41.413Z,10.23
2023-10-10T21:43:11.640Z,10.00
2023-10-10T21:45:40.409Z,9.93
2023-10-10T21:48:11.653Z,11.43
2023-10-10T21:50:42.100Z,11.63
2023-10-10T21:53:09.389Z,10.97
2023-10-10T21:55:38.868Z,9.40
2023-10-10T21:58:15.049Z,9.53
2023-10-10T22:00:42.124Z,11.30
2023-10-10T22:03:09.240Z,11.97
2023-10-10T22:05:38.687Z,11.17
2023-10-10T22:08:07.849Z,11.67
2023-10-10T22:10:36.959Z,12.10
2023-10-10T22:13:07.533Z,14.07
2023-10-10T22:15:36.631Z,12.63
2023-10-10T22:18:08.016Z,12.47
2023-10-10T22:20:35.572Z,13.43
2023-10-10T22:23:02.720Z,12.73
2023-10-10T22:25:33.399Z,12.07
2023-10-10T22:28:01.641Z,12.57
2023-10-10T22:30:34.017Z,13.40
2023-10-10T22:33:01.460Z,11.80
2023-10-10T22:35:30.343Z,16.73
2023-10-10T22:37:57.650Z,14.17
2023-10-10T22:40:28.383Z,11.53
2023-10-10T22:43:04.940Z,13.83
2023-10-10T22:45:34.633Z,13.77
2023-10-10T22:48:04.796Z,12.53
2023-10-10T22:50:32.348Z,15.60
2023-10-10T22:53:02.499Z,11.17
2023-10-10T22:55:34.840Z,14.77
2023-10-10T22:58:07.960Z,10.63
2023-10-10T23:00:40.039Z,10.57
2023-10-10T23:03:12.336Z,12.43
2023-10-10T23:05:40.944Z,13.13
2023-10-10T23:08:08.237Z,15.97
2023-10-10T23:10:35.859Z,11.77
2023-10-10T23:13:03.583Z,13.07
2023-10-10T23:15:30.800Z,11.30
2023-10-10T23:18:00.582Z,12.57
2023-10-10T23:20:28.948Z,17.50
2023-10-10T23:23:04.272Z,12.60
2023-10-10T23:25:32.887Z,12.77
2023-10-10T23:28:00.342Z,13.83
2023-10-10T23:30:28.977Z,10.23
2023-10-10T23:33:20.670Z,14.33
2023-10-10T23:35:50.095Z,13.13
2023-10-10T23:38:20.938Z,10.93
2023-10-10T23:40:47.996Z,13.97
2023-10-10T23:43:20.479Z,12.10
2023-10-10T23:45:55.975Z,10.33
2023-10-10T23:48:30.592Z,11.97
2023-10-10T23:50:58.313Z,13.57
2023-10-10T23:53:25.832Z,10.80
2023-10-10T23:55:56.529Z,14.77
2023-10-10T23:58:26.811Z,10.83
